createdAt,value
2022-08-02T00:00:59.284Z,13.40
2022-08-02T00:03:27.161Z,13.40
2022-08-02T00:05:56.435Z,13.20
2022-08-02T00:08:24.275Z,13.20
2022-08-02T00:10:52.234Z,13.10
2022-08-02T00:13:20.702Z,13.10
2022-08-02T00:15:48.619Z,13.00
2022-08-02T00:18:16.505Z,13.00
2022-08-02T00:20:44.446Z,12.90
2022-08-02T00:23:13.628Z,12.80
2022-08-02T00:25:55.586Z,12.80
2022-08-02T00:28:27.926Z,12.80
2022-08-02T00:30:57.632Z,12.70
2022-08-02T00:34:26.621Z,12.70
2022-08-02T00:36:13.628Z,12.80
2022-08-02T00:38:43.090Z,12.80
2022-08-02T00:41:16.400Z,12.80
2022-08-02T00:43:44.561Z,12.80
2022-08-02T00:46:13.862Z,12.70
2022-08-02T00:48:43.149Z,12.70
2022-08-02T00:51:11.648Z,12.60
2022-08-02T00:53:39.788Z,12.60
2022-08-02T00:56:11.204Z,12.50
2022-08-02T00:58:39.191Z,12.40
2022-08-02T01:06:11.528Z,12.30
2022-08-02T01:08:39.810Z,12.20
2022-08-02T01:13:37.818Z,12.10
2022-08-02T01:16:15.243Z,12.10
2022-08-02T01:18:46.582Z,12.00
2022-08-02T01:21:42.168Z,12.00
2022-08-02T01:27:12.648Z,11.90
2022-08-02T01:29:46.460Z,11.90
2022-08-02T01:32:17.233Z,11.90
2022-08-02T01:37:21.346Z,11.80
2022-08-02T01:44:55.894Z,11.80
2022-08-02T01:47:27.155Z,11.70
2022-08-02T01:49:58.320Z,11.70
2022-08-02T01:52:30.661Z,11.70
2022-08-02T01:55:01.924Z,11.70
2022-08-02T02:05:05.010Z,11.70
2022-08-02T02:07:34.690Z,11.70
2022-08-02T02:10:03.716Z,11.70
2022-08-02T02:12:32.673Z,11.70
2022-08-02T02:27:53.051Z,11.60
2022-08-02T02:30:21.228Z,11.60
2022-08-02T02:32:53.589Z,11.60
2022-08-02T02:40:21.470Z,11.50
2022-08-02T02:42:50.864Z,11.50
2022-08-02T02:45:20.261Z,11.50
2022-08-02T02:47:49.571Z,11.50
2022-08-02T02:52:48.611Z,11.50
2022-08-02T02:57:46.607Z,11.50
2022-08-02T03:00:16.160Z,11.40
2022-08-02T03:02:45.506Z,11.50
2022-08-02T03:05:14.458Z,11.50
2022-08-02T03:10:12.566Z,11.50
2022-08-02T03:12:40.498Z,11.60
2022-08-02T03:15:14.088Z,11.50
2022-08-02T03:17:43.432Z,11.60
2022-08-02T03:20:13.564Z,11.60
2022-08-02T03:22:41.861Z,11.60
2022-08-02T03:25:12.161Z,11.50
2022-08-02T03:32:40.887Z,11.40
2022-08-02T03:35:11.351Z,11.40
2022-08-02T03:40:10.401Z,11.40
2022-08-02T03:42:41.177Z,11.50
2022-08-02T03:45:11.131Z,11.50
2022-08-02T03:47:42.187Z,11.50
2022-08-02T03:50:13.533Z,11.50
2022-08-02T03:52:42.777Z,11.40
2022-08-02T03:55:11.445Z,11.40
2022-08-02T03:57:41.080Z,11.40
2022-08-02T04:00:10.816Z,11.40
2022-08-02T04:02:41.863Z,11.40
2022-08-02T04:05:10.080Z,11.50
2022-08-02T04:08:33.960Z,11.50
2022-08-02T04:15:24.637Z,11.60
2022-08-02T04:17:57.612Z,11.60
2022-08-02T04:20:28.995Z,11.70
2022-08-02T04:28:16.871Z,11.90
2022-08-02T04:33:15.941Z,12.20
2022-08-02T04:38:14.278Z,12.40
2022-08-02T04:40:50.557Z,12.40
2022-08-02T04:43:19.736Z,12.50
2022-08-02T04:45:48.346Z,12.60
2022-08-02T04:48:16.256Z,12.60
2022-08-02T05:08:23.940Z,13.60
2022-08-02T05:13:20.165Z,14.50
2022-08-02T05:15:49.367Z,14.90
2022-08-02T05:18:18.782Z,15.20
2022-08-02T05:23:15.259Z,16.10
2022-08-02T05:25:45.997Z,16.40
2022-08-02T05:28:13.875Z,16.60
2022-08-02T05:30:41.817Z,16.70
2022-08-02T05:33:09.780Z,17.00
2022-08-02T05:35:39.044Z,17.20
2022-08-02T05:38:10.159Z,17.40
2022-08-02T05:40:54.249Z,17.50
2022-08-02T05:43:23.317Z,17.80
2022-08-02T05:45:57.441Z,17.90
2022-08-02T05:48:31.191Z,18.00
2022-08-02T05:51:05.319Z,18.10
2022-08-02T05:53:38.135Z,18.10
2022-08-02T05:56:15.718Z,18.20
2022-08-02T05:58:51.273Z,18.20
2022-08-02T06:01:25.868Z,18.30
2022-08-02T06:03:56.278Z,18.40
2022-08-02T06:06:26.665Z,18.50
2022-08-02T06:08:59.359Z,18.70
2022-08-02T06:11:35.824Z,18.90
2022-08-02T06:14:04.756Z,19.00
2022-08-02T06:16:33.108Z,19.10
2022-08-02T06:19:10.297Z,19.20
2022-08-02T06:22:37.436Z,19.30
2022-08-02T06:24:28.910Z,19.70
2022-08-02T06:26:57.724Z,20.00
2022-08-02T06:29:25.809Z,20.20
2022-08-02T06:31:54.583Z,20.30
2022-08-02T06:36:58.694Z,20.30
2022-08-02T06:42:04.388Z,20.90
2022-08-02T06:44:49.946Z,21.00
2022-08-02T06:47:21.074Z,21.30
2022-08-02T06:49:51.894Z,21.50
2022-08-02T06:52:27.750Z,22.30
2022-08-02T06:54:57.300Z,22.30
2022-08-02T06:57:25.612Z,21.90
2022-08-02T06:59:54.014Z,22.00
2022-08-02T07:02:22.113Z,22.10
2022-08-02T07:04:49.993Z,22.40
2022-08-02T07:07:18.443Z,22.40
2022-08-02T07:09:56.432Z,22.80
2022-08-02T07:12:30.989Z,23.00
2022-08-02T07:14:59.483Z,22.30
2022-08-02T07:17:27.589Z,22.20
2022-08-02T07:19:55.723Z,22.60
2022-08-02T07:29:52.039Z,22.70
2022-08-02T07:32:22.059Z,22.70
2022-08-02T07:34:52.820Z,23.00
2022-08-02T07:37:35.727Z,23.20
2022-08-02T07:40:15.178Z,23.50
2022-08-02T07:42:48.239Z,23.70
2022-08-02T07:45:16.217Z,23.80
2022-08-02T07:47:45.574Z,23.70
2022-08-02T07:50:15.518Z,23.70
2022-08-02T07:52:43.906Z,24.00
2022-08-02T07:55:14.801Z,24.20
2022-08-02T07:57:46.430Z,24.30
2022-08-02T08:00:17.220Z,24.40
2022-08-02T08:02:49.571Z,24.40
2022-08-02T08:05:20.525Z,24.60
2022-08-02T08:07:48.704Z,26.00
2022-08-02T08:10:18.043Z,24.80
2022-08-02T08:12:46.017Z,24.40
2022-08-02T08:15:14.001Z,23.90
2022-08-02T08:17:41.925Z,23.90
2022-08-02T08:20:15.656Z,24.20
2022-08-02T08:22:43.928Z,24.40
2022-08-02T08:25:12.068Z,24.80
2022-08-02T08:27:48.451Z,25.10
2022-08-02T08:30:16.463Z,25.30
2022-08-02T08:32:44.475Z,22.40
2022-08-02T08:35:12.373Z,25.10
2022-08-02T08:37:41.862Z,25.30
2022-08-02T08:40:11.638Z,25.40
2022-08-02T08:42:41.646Z,25.40
2022-08-02T08:45:10.339Z,25.40
2022-08-02T08:47:39.474Z,25.40
2022-08-02T08:50:16.964Z,25.50
2022-08-02T08:52:51.180Z,25.60
2022-08-02T08:55:19.761Z,25.90
2022-08-02T08:57:49.319Z,26.00
2022-08-02T09:00:18.446Z,26.00
2022-08-02T09:02:46.504Z,25.90
2022-08-02T09:05:16.634Z,26.00
2022-08-02T09:07:47.937Z,26.40
2022-08-02T09:10:36.073Z,26.70
2022-08-02T09:13:39.121Z,27.20
2022-08-02T09:16:00.967Z,27.60
2022-08-02T09:18:44.027Z,27.70
2022-08-02T09:21:12.248Z,27.30
2022-08-02T09:23:41.254Z,26.90
2022-08-02T09:26:11.911Z,26.50
2022-08-02T09:28:42.735Z,26.30
2022-08-02T09:31:12.412Z,26.50
2022-08-02T09:33:41.497Z,27.40
2022-08-02T09:36:12.223Z,27.20
2022-08-02T09:38:41.738Z,27.40
2022-08-02T09:41:22.889Z,27.60
2022-08-02T09:44:05.477Z,27.70
2022-08-02T09:46:37.447Z,28.00
2022-08-02T09:49:08.356Z,27.90
2022-08-02T09:51:37.504Z,28.80
2022-08-02T09:54:09.311Z,28.20
2022-08-02T09:56:43.184Z,28.30
2022-08-02T09:59:13.309Z,28.50
2022-08-02T10:01:51.595Z,28.50
2022-08-02T10:04:28.565Z,28.50
2022-08-02T10:06:56.761Z,28.60
2022-08-02T10:09:24.954Z,28.70
2022-08-02T10:11:53.737Z,28.80
2022-08-02T10:14:23.511Z,28.80
2022-08-02T10:16:51.726Z,28.70
2022-08-02T10:19:59.831Z,29.00
2022-08-02T10:22:11.927Z,29.10
2022-08-02T10:24:47.686Z,29.30
2022-08-02T10:27:19.973Z,29.20
2022-08-02T10:29:55.523Z,29.10
2022-08-02T10:32:30.604Z,29.60
2022-08-02T10:35:18.862Z,30.30
2022-08-02T10:37:52.480Z,30.80
2022-08-02T10:40:27.376Z,31.50
2022-08-02T10:42:59.475Z,31.90
2022-08-02T10:45:30.546Z,32.10
2022-08-02T10:48:00.257Z,32.10
2022-08-02T10:50:53.546Z,32.10
2022-08-02T10:53:28.524Z,31.90
2022-08-02T10:55:57.805Z,31.70
2022-08-02T10:58:29.716Z,31.70
2022-08-02T11:01:00.163Z,31.90
2022-08-02T11:03:40.703Z,32.10
2022-08-02T11:06:25.002Z,32.30
2022-08-02T11:09:31.991Z,32.30
2022-08-02T11:12:04.145Z,32.40
2022-08-02T11:14:33.561Z,32.70
2022-08-02T11:17:14.790Z,32.80
2022-08-02T11:20:20.982Z,32.50
2022-08-02T11:22:50.885Z,32.10
2022-08-02T11:26:01.000Z,32.10
2022-08-02T11:28:24.839Z,32.30
2022-08-02T11:31:01.252Z,32.30
2022-08-02T11:33:36.775Z,32.40
2022-08-02T11:36:08.062Z,32.50
2022-08-02T11:38:35.976Z,32.60
2022-08-02T11:41:06.068Z,32.40
2022-08-02T11:43:38.138Z,32.50
2022-08-02T11:46:12.929Z,32.70
2022-08-02T11:48:44.074Z,32.70
2022-08-02T11:51:14.216Z,32.70
2022-08-02T11:53:47.261Z,32.90
2022-08-02T11:56:17.993Z,32.90
2022-08-02T11:59:02.653Z,32.50
2022-08-02T12:01:32.235Z,31.90
2022-08-02T12:04:06.149Z,31.40
2022-08-02T12:06:35.469Z,31.50
2022-08-02T12:09:17.947Z,31.90
2022-08-02T12:11:50.482Z,32.10
2022-08-02T12:14:18.613Z,31.80
2022-08-02T12:17:04.259Z,31.60
2022-08-02T12:19:34.808Z,31.60
2022-08-02T12:22:18.488Z,31.70
2022-08-02T12:24:48.848Z,31.60
2022-08-02T12:27:31.369Z,31.60
2022-08-02T12:30:01.981Z,31.50
2022-08-02T12:32:30.264Z,31.20
2022-08-02T12:35:12.390Z,31.20
2022-08-02T12:37:41.613Z,31.20
2022-08-02T12:40:20.814Z,31.20
2022-08-02T12:42:56.022Z,31.20
2022-08-02T12:45:24.456Z,31.10
2022-08-02T12:47:54.336Z,31.40
2022-08-02T12:50:26.705Z,31.90
2022-08-02T12:53:04.951Z,32.20
2022-08-02T12:56:00.935Z,32.30
2022-08-02T12:58:26.640Z,32.50
2022-08-02T13:00:56.079Z,32.80
2022-08-02T13:04:09.846Z,33.10
2022-08-02T13:06:41.371Z,33.40
2022-08-02T13:09:02.377Z,33.70
2022-08-02T13:11:30.974Z,33.90
2022-08-02T13:13:58.893Z,33.80
2022-08-02T13:16:31.150Z,33.90
2022-08-02T13:19:00.053Z,33.90
2022-08-02T13:21:40.068Z,33.40
2022-08-02T13:24:20.765Z,33.20
2022-08-02T13:26:56.603Z,32.70
2022-08-02T13:29:25.728Z,32.30
2022-08-02T13:31:53.724Z,32.20
2022-08-02T13:34:21.601Z,32.30
2022-08-02T13:36:50.877Z,32.20
2022-08-02T13:39:20.467Z,31.90
2022-08-02T13:41:48.450Z,31.60
2022-08-02T13:44:16.628Z,31.30
2022-08-02T13:46:45.340Z,31.30
2022-08-02T13:49:19.054Z,31.00
2022-08-02T13:51:48.371Z,30.80
2022-08-02T13:54:18.314Z,30.70
2022-08-02T13:56:46.605Z,30.80
2022-08-02T13:59:54.558Z,30.90
2022-08-02T14:02:02.694Z,30.80
2022-08-02T14:04:30.830Z,30.90
2022-08-02T14:06:59.260Z,31.10
2022-08-02T14:09:31.379Z,31.20
2022-08-02T14:12:01.433Z,31.50
2022-08-02T14:14:29.570Z,31.60
2022-08-02T14:16:57.521Z,31.60
2022-08-02T14:19:25.903Z,31.30
2022-08-02T14:21:53.910Z,31.30
2022-08-02T14:24:41.647Z,31.50
2022-08-02T14:27:09.775Z,32.10
2022-08-02T14:29:37.723Z,32.40
2022-08-02T14:32:06.577Z,32.50
2022-08-02T14:34:34.446Z,32.50
2022-08-02T14:37:02.418Z,32.80
2022-08-02T14:39:43.619Z,32.90
2022-08-02T14:42:20.276Z,33.10
2022-08-02T14:44:48.280Z,33.20
2022-08-02T14:47:16.300Z,33.30
2022-08-02T14:49:49.593Z,33.10
2022-08-02T14:52:18.686Z,33.20
2022-08-02T14:54:47.023Z,33.40
2022-08-02T14:57:15.071Z,33.60
2022-08-02T14:59:44.330Z,33.30
2022-08-02T15:02:13.506Z,33.10
2022-08-02T15:04:43.698Z,33.30
2022-08-02T15:07:14.115Z,33.60
2022-08-02T15:09:42.548Z,33.70
2022-08-02T15:12:11.849Z,33.60
2022-08-02T15:14:40.663Z,33.20
2022-08-02T15:17:10.553Z,33.10
2022-08-02T15:19:40.921Z,32.90
2022-08-02T15:22:25.094Z,32.70
2022-08-02T15:24:53.338Z,32.30
2022-08-02T15:27:21.375Z,32.10
2022-08-02T15:29:49.377Z,32.10
2022-08-02T15:32:19.628Z,32.50
2022-08-02T15:34:48.198Z,32.80
2022-08-02T15:37:16.300Z,33.00
2022-08-02T15:39:44.257Z,33.00
2022-08-02T15:42:12.776Z,33.10
2022-08-02T15:44:40.909Z,33.10
2022-08-02T15:47:09.416Z,33.00
2022-08-02T15:49:41.532Z,32.60
2022-08-02T15:52:10.378Z,32.10
2022-08-02T15:54:38.608Z,31.90
2022-08-02T15:57:07.144Z,31.90
2022-08-02T15:59:35.039Z,32.00
2022-08-02T16:02:03.384Z,32.10
2022-08-02T16:04:31.282Z,32.30
2022-08-02T16:07:01.629Z,32.30
2022-08-02T16:09:30.422Z,32.20
2022-08-02T16:11:58.304Z,32.10
2022-08-02T16:14:26.264Z,31.90
2022-08-02T16:16:54.434Z,31.80
2022-08-02T16:19:38.779Z,31.40
2022-08-02T16:22:13.779Z,31.00
2022-08-02T16:24:42.120Z,30.50
2022-08-02T16:27:10.078Z,30.10
2022-08-02T16:29:38.049Z,29.70
2022-08-02T16:32:06.930Z,29.40
2022-08-02T16:34:56.660Z,29.20
2022-08-02T16:37:25.162Z,29.50
2022-08-02T16:39:53.191Z,29.80
2022-08-02T16:42:25.301Z,29.60
2022-08-02T16:47:43.749Z,29.50
2022-08-02T16:50:28.002Z,29.40
2022-08-02T16:52:58.993Z,29.80
2022-08-02T16:55:30.344Z,29.80
2022-08-02T16:58:00.391Z,30.10
2022-08-02T17:00:29.329Z,30.30
2022-08-02T17:02:59.528Z,30.60
2022-08-02T17:05:38.207Z,30.80
2022-08-02T17:08:19.197Z,30.80
2022-08-02T17:10:47.664Z,30.70
2022-08-02T17:13:15.746Z,30.70
2022-08-02T17:16:07.943Z,30.60
2022-08-02T17:18:34.211Z,30.60
2022-08-02T17:21:08.512Z,30.30
2022-08-02T17:24:04.248Z,30.10
2022-08-02T17:26:25.845Z,29.90
2022-08-02T17:29:14.700Z,30.70
2022-08-02T17:32:02.488Z,29.60
2022-08-02T17:34:32.669Z,29.10
2022-08-02T17:37:01.726Z,30.20
2022-08-02T17:39:44.167Z,28.80
2022-08-02T17:42:22.947Z,29.00
2022-08-02T17:44:52.860Z,29.10
2022-08-02T17:47:21.883Z,29.20
2022-08-02T17:49:52.847Z,29.20
2022-08-02T17:52:50.345Z,29.20
2022-08-02T17:55:14.199Z,29.40
2022-08-02T17:57:58.167Z,29.60
2022-08-02T18:00:33.870Z,29.60
2022-08-02T18:03:05.687Z,29.90
2022-08-02T18:05:39.701Z,29.40
2022-08-02T18:08:22.763Z,29.40
2022-08-02T18:10:53.414Z,29.40
2022-08-02T18:13:21.765Z,29.20
2022-08-02T18:15:50.644Z,29.10
2022-08-02T18:18:19.219Z,29.20
2022-08-02T18:21:21.968Z,28.70
2022-08-02T18:23:49.366Z,28.50
2022-08-02T18:26:20.840Z,28.40
2022-08-02T18:28:49.114Z,28.20
2022-08-02T18:31:22.368Z,28.00
2022-08-02T18:33:58.414Z,27.80
2022-08-02T18:36:29.844Z,27.50
2022-08-02T18:38:58.157Z,27.20
2022-08-02T18:41:28.708Z,26.80
2022-08-02T18:43:56.654Z,26.50
2022-08-02T18:46:30.066Z,26.20
2022-08-02T18:49:06.684Z,25.90
2022-08-02T18:51:43.130Z,25.60
2022-08-02T18:54:11.429Z,25.30
2022-08-02T18:56:40.910Z,27.50
2022-08-02T18:59:15.728Z,24.80
2022-08-02T19:01:51.012Z,24.70
2022-08-02T19:04:27.462Z,24.30
2022-08-02T19:07:01.725Z,24.20
2022-08-02T19:09:35.894Z,24.00
2022-08-02T19:12:05.583Z,23.70
2022-08-02T19:14:33.705Z,23.50
2022-08-02T19:17:15.804Z,23.40
2022-08-02T19:19:51.180Z,23.20
2022-08-02T19:22:20.403Z,23.10
2022-08-02T19:24:51.561Z,22.90
2022-08-02T19:27:31.960Z,22.80
2022-08-02T19:30:02.129Z,22.90
2022-08-02T19:32:40.092Z,22.50
2022-08-02T19:35:19.766Z,22.40
2022-08-02T19:37:59.303Z,22.20
2022-08-02T19:40:28.937Z,22.10
2022-08-02T19:44:26.507Z,21.90
2022-08-02T19:45:50.689Z,21.80
2022-08-02T19:48:24.465Z,21.70
2022-08-02T19:50:56.170Z,21.80
2022-08-02T19:53:29.072Z,24.10
2022-08-02T19:56:20.917Z,21.40
2022-08-02T19:58:51.984Z,21.30
2022-08-02T20:01:27.031Z,23.00
2022-08-02T20:04:05.873Z,21.20
2022-08-02T20:06:33.803Z,21.10
2022-08-02T20:09:01.815Z,21.10
2022-08-02T20:11:34.672Z,21.10
2022-08-02T20:14:05.864Z,23.30
2022-08-02T20:16:34.277Z,21.00
2022-08-02T20:19:02.607Z,22.00
2022-08-02T20:21:36.059Z,20.80
2022-08-02T20:24:07.373Z,20.70
2022-08-02T20:26:35.801Z,20.70
2022-08-02T20:29:08.290Z,20.60
2022-08-02T20:31:37.383Z,21.60
2022-08-02T20:34:05.537Z,22.40
2022-08-02T20:36:35.199Z,20.40
2022-08-02T20:39:03.107Z,22.30
2022-08-02T20:41:36.758Z,20.30
2022-08-02T20:44:16.072Z,20.20
2022-08-02T20:46:59.207Z,20.20
2022-08-02T20:49:41.570Z,21.10
2022-08-02T20:52:24.117Z,20.10
2022-08-02T20:54:52.945Z,22.60
2022-08-02T20:57:49.003Z,19.40
2022-08-02T22:01:04.365Z,18.60
2022-08-02T22:03:32.408Z,18.40
2022-08-02T22:06:00.911Z,18.60
2022-08-02T22:08:28.968Z,18.50
2022-08-02T22:11:03.157Z,18.50
2022-08-02T22:13:38.770Z,18.50
2022-08-02T22:16:18.286Z,18.40
2022-08-02T22:18:51.428Z,18.40
2022-08-02T22:21:22.905Z,18.40
2022-08-02T22:23:51.422Z,18.30
2022-08-02T22:26:19.814Z,18.20
2022-08-02T22:28:51.056Z,18.30
2022-08-02T22:31:36.204Z,18.30
2022-08-02T22:34:11.613Z,18.30
2022-08-02T22:36:54.545Z,18.30
2022-08-02T22:39:22.516Z,18.30
2022-08-02T22:42:05.686Z,18.20
2022-08-02T22:44:34.779Z,17.50
2022-08-02T22:47:07.542Z,18.10
2022-08-02T22:49:51.691Z,18.10
2022-08-02T22:52:24.173Z,18.00
2022-08-02T22:54:52.204Z,18.00
2022-08-02T22:57:30.837Z,18.00
2022-08-02T22:58:34.617Z,29.50
2022-08-02T22:59:59.917Z,17.90
2022-08-02T23:02:30.107Z,17.90
2022-08-02T23:04:58.281Z,17.90
2022-08-02T23:07:26.252Z,18.00
2022-08-02T23:09:54.286Z,18.50
2022-08-02T23:12:22.435Z,18.00
2022-08-02T23:14:51.470Z,19.30
2022-08-02T23:17:37.449Z,17.90
2022-08-02T23:20:09.641Z,17.80
2022-08-02T23:22:38.129Z,17.80
2022-08-02T23:25:07.410Z,17.80
2022-08-02T23:27:35.712Z,17.70
2022-08-02T23:30:03.788Z,17.60
2022-08-02T23:32:31.905Z,17.70
2022-08-02T23:34:59.839Z,17.60
2022-08-02T23:37:29.060Z,16.50
2022-08-02T23:40:39.671Z,17.60
2022-08-02T23:43:13.760Z,17.50
2022-08-02T23:45:44.265Z,17.50
2022-08-02T23:48:12.240Z,17.50
2022-08-02T23:50:40.501Z,17.50
2022-08-02T23:53:09.776Z,17.40
2022-08-02T23:55:37.685Z,17.40
2022-08-02T23:58:07.307Z,17.40
